Time;durP1;ratioP1;P1;durP2;ratioP2;P2;SDS_P1;SDS_P2;PMS_P1;PMS_P2;Temp;Humidity;BMP_temperature;BMP_pressure;BME280_temperature;BME280_humidity;BME280_pressure;Samples;Min_cycle;Max_cycle;Signal;HPM_P1;HPM_P2
2022/08/11 00:02:31;;;;;;;6.47;3.10;;;23.80;99.90;;;;;;5031990;28;20026;-79
2022/08/11 00:05:06;;;;;;;4.05;2.72;;;23.60;99.90;;;;;;5032217;28;20025;-79
2022/08/11 00:07:32;;;;;;;3.80;3.35;;;23.60;99.90;;;;;;5032212;28;20025;-79
2022/08/11 00:09:59;;;;;;;3.28;2.78;;;23.50;99.90;;;;;;5032734;28;20036;-79
2022/08/11 00:12:25;;;;;;;3.08;2.88;;;23.40;99.90;;;;;;5032242;28;20033;-79
2022/08/11 00:14:57;;;;;;;2.72;2.55;;;23.50;99.90;;;;;;5032197;28;20024;-79
2022/08/11 00:17:28;;;;;;;4.03;2.88;;;23.50;99.90;;;;;;5031811;28;20025;-79
2022/08/11 00:20:05;;;;;;;3.13;2.83;;;23.30;99.90;;;;;;5032374;28;20481;-79
2022/08/11 00:22:31;;;;;;;5.47;3.05;;;23.20;99.90;;;;;;5032174;28;20478;-79
2022/08/11 00:24:59;;;;;;;4.40;3.30;;;23.00;99.90;;;;;;5032063;28;20030;-79
2022/08/11 00:27:35;;;;;;;3.47;3.17;;;23.10;99.90;;;;;;5029879;28;20068;-79
2022/08/11 00:30:03;;;;;;;3.35;2.88;;;23.00;99.90;;;;;;5031441;28;20603;-79
2022/08/11 00:32:29;;;;;;;6.97;3.20;;;23.10;99.90;;;;;;5030982;28;20021;-79
2022/08/11 00:34:57;;;;;;;3.17;2.90;;;23.30;99.90;;;;;;5031189;28;20040;-79
2022/08/11 00:37:23;;;;;;;3.47;3.17;;;23.30;99.90;;;;;;5032598;28;20485;-79
2022/08/11 00:39:52;;;;;;;4.53;3.00;;;23.20;99.90;;;;;;5034954;28;20045;-79
2022/08/11 00:43:00;;;;;;;3.90;3.30;;;23.20;99.90;;;;;;5034657;28;20555;-79
2022/08/11 00:45:39;;;;;;;4.22;3.13;;;23.10;99.90;;;;;;5034095;28;20026;-79
2022/08/11 00:48:21;;;;;;;3.88;3.10;;;23.10;99.90;;;;;;5034599;28;20151;-79
2022/08/11 00:50:59;;;;;;;4.05;3.03;;;23.10;99.90;;;;;;5034443;28;20026;-79
2022/08/11 00:53:52;;;;;;;4.03;3.05;;;23.10;99.90;;;;;;5034450;28;20049;-79
2022/08/11 00:56:33;;;;;;;4.78;2.80;;;23.00;99.90;;;;;;5034520;28;20033;-79
2022/08/11 00:59:18;;;;;;;6.00;2.95;;;22.90;99.90;;;;;;5034042;28;20073;-79
2022/08/11 01:01:56;;;;;;;3.63;3.10;;;22.90;1.00;;;;;;5034431;28;20022;-79
2022/08/11 01:04:40;;;;;;;3.75;3.03;;;23.20;99.90;;;;;;5034502;28;20029;-79
2022/08/11 01:07:48;;;;;;;3.10;2.90;;;23.00;1.00;;;;;;5034201;28;20438;-79
2022/08/11 01:10:20;;;;;;;3.80;3.45;;;22.70;1.00;;;;;;5034340;28;20628;-79
2022/08/11 01:13:08;;;;;;;3.60;3.30;;;22.60;1.00;;;;;;5032907;28;20401;-79
2022/08/11 01:15:52;;;;;;;3.58;3.28;;;22.70;1.00;;;;;;5034110;28;20539;-79
2022/08/11 01:18:38;;;;;;;3.63;3.33;;;22.80;1.00;;;;;;5033938;28;20113;-79
2022/08/11 01:21:13;;;;;;;3.88;3.10;;;22.90;1.00;;;;;;5033961;28;20033;-79
2022/08/11 01:23:47;;;;;;;3.13;2.85;;;22.70;1.00;;;;;;5034010;28;20389;-79
2022/08/11 01:27:04;;;;;;;3.60;3.30;;;22.70;1.00;;;;;;4985671;28;1388112;-79
2022/08/11 01:29:48;;;;;;;5.38;3.30;;;22.70;1.00;;;;;;5034664;28;20045;-79
2022/08/11 01:32:51;;;;;;;3.50;3.30;;;22.60;1.00;;;;;;5035078;28;20128;-79
2022/08/11 01:35:35;;;;;;;3.80;3.50;;;22.50;1.00;;;;;;5035118;28;20022;-79
2022/08/11 01:38:30;;;;;;;3.70;3.40;;;22.40;1.00;;;;;;5035176;28;20037;-79
2022/08/11 01:41:08;;;;;;;3.33;3.03;;;22.30;1.00;;;;;;4954384;29;20531;-79
2022/08/11 01:48:00;;;;;;;3.70;3.40;;;22.40;1.00;;;;;;4955175;29;20054;-79
2022/08/11 01:50:45;;;;;;;3.85;3.42;;;22.40;1.00;;;;;;4949620;29;20031;-80
2022/08/11 01:53:33;;;;;;;4.40;3.80;;;22.40;1.00;;;;;;4954421;29;20028;-79
2022/08/11 01:56:07;;;;;;;3.63;3.30;;;22.20;1.00;;;;;;4954356;29;20027;-79
2022/08/11 01:58:42;;;;;;;4.03;3.55;;;22.30;1.00;;;;;;4953967;29;20032;-79
2022/08/11 02:01:20;;;;;;;3.30;3.00;;;22.20;1.00;;;;;;4954436;29;20043;-79
2022/08/11 02:04:27;;;;;;;4.38;3.28;;;22.30;1.00;;;;;;4954553;29;20048;-79
2022/08/11 02:07:14;;;;;;;3.90;3.58;;;22.30;1.00;;;;;;4878325;29;20490;-79
2022/08/11 02:13:31;;;;;;;4.60;3.83;;;21.90;1.00;;;;;;4859733;29;20034;-79
2022/08/11 02:16:27;;;;;;;3.88;3.58;;;21.80;1.00;;;;;;4859692;29;20033;-79
2022/08/11 02:25:36;;;;;;;6.03;3.38;;;21.90;1.00;;;;;;4953904;29;20552;-79
2022/08/11 02:28:29;;;;;;;4.20;3.80;;;22.10;1.00;;;;;;4953118;28;20047;-79
2022/08/11 02:34:04;;;;;;;4.88;3.55;;;22.00;1.00;;;;;;4954096;29;20079;-79
2022/08/11 02:36:46;;;;;;;4.00;3.60;;;21.80;1.00;;;;;;4953561;29;20606;-79
2022/08/11 02:39:17;;;;;;;3.65;3.35;;;21.60;1.00;;;;;;4953607;29;20541;-79
2022/08/11 02:45:11;;;;;;;3.50;3.20;;;21.90;1.00;;;;;;4992255;28;20037;-79
2022/08/11 02:49:52;;;;;;;4.20;3.50;;;21.90;1.00;;;;;;4992150;28;20060;-79
2022/08/11 02:50:34;;;;;;;4.03;3.60;;;21.80;1.00;;;;;;5026770;28;20052;-79
2022/08/11 02:53:13;;;;;;;3.80;3.50;;;21.80;1.00;;;;;;5033463;28;20108;-79
2022/08/11 02:56:02;;;;;;;4.38;3.40;;;21.80;1.00;;;;;;5033483;28;20064;-79
2022/08/11 02:58:38;;;;;;;4.43;3.35;;;21.90;1.00;;;;;;5033531;28;20079;-79
2022/08/11 03:01:18;;;;;;;4.18;3.45;;;22.00;1.00;;;;;;5032530;28;20636;-79
2022/08/11 03:03:59;;;;;;;3.92;3.60;;;22.10;1.00;;;;;;5033331;28;20032;-79
2022/08/11 03:06:31;;;;;;;3.50;3.20;;;22.10;1.00;;;;;;5033233;28;20076;-79
2022/08/11 03:09:09;;;;;;;4.43;3.75;;;22.10;1.00;;;;;;5033255;28;20033;-79
2022/08/11 03:18:25;;;;;;;4.00;3.40;;;22.20;1.00;;;;;;5033139;28;20078;-79
2022/08/11 03:21:02;;;;;;;4.88;3.58;;;22.20;1.00;;;;;;5032969;28;20137;-79
2022/08/11 03:23:40;;;;;;;6.43;3.58;;;22.20;1.00;;;;;;5032852;28;20056;-79
2022/08/11 03:26:14;;;;;;;3.80;3.30;;;22.30;1.00;;;;;;5032495;28;20045;-79
2022/08/11 03:28:52;;;;;;;4.07;3.35;;;22.30;1.00;;;;;;5032854;28;20025;-79
2022/08/11 03:31:36;;;;;;;4.47;3.65;;;22.30;1.00;;;;;;5033309;28;20091;-79
2022/08/11 03:34:13;;;;;;;5.05;3.90;;;22.30;1.00;;;;;;5032711;28;20052;-79
2022/08/11 03:36:48;;;;;;;4.65;3.80;;;22.10;1.00;;;;;;5032854;28;20035;-79
2022/08/11 03:39:25;;;;;;;5.65;3.72;;;21.80;1.00;;;;;;5032371;28;20401;-79
2022/08/11 03:42:15;;;;;;;4.07;3.35;;;21.70;1.00;;;;;;5032736;28;20025;-78
2022/08/11 03:45:06;;;;;;;4.78;3.60;;;21.50;1.00;;;;;;5032669;28;20052;-79
2022/08/11 03:47:40;;;;;;;4.47;3.53;;;21.50;1.00;;;;;;5032682;28;20026;-79
2022/08/11 03:50:23;;;;;;;3.97;3.63;;;21.50;1.00;;;;;;5033036;28;20045;-79
2022/08/11 03:53:11;;;;;;;4.68;3.60;;;21.60;1.00;;;;;;5032390;28;20025;-79
2022/08/11 03:55:57;;;;;;;3.90;3.60;;;21.50;1.00;;;;;;5032381;28;20052;-78
2022/08/11 03:58:50;;;;;;;3.88;3.50;;;21.40;1.00;;;;;;5032407;28;20141;-78
2022/08/11 04:01:28;;;;;;;5.05;3.42;;;21.40;1.00;;;;;;5032419;28;20037;-78
2022/08/11 04:04:13;;;;;;;5.40;3.80;;;21.50;1.00;;;;;;5032400;28;20381;-79
2022/08/11 04:07:16;;;;;;;4.35;3.83;;;21.50;1.00;;;;;;5032567;28;20025;-79
2022/08/11 04:09:45;;;;;;;4.28;3.78;;;21.50;1.00;;;;;;5031869;28;20030;-79
2022/08/11 04:12:37;;;;;;;6.60;3.63;;;21.30;1.00;;;;;;5030843;28;20032;-79
2022/08/11 04:18:42;;;;;;;3.80;3.50;;;21.40;1.00;;;;;;5032002;28;20543;-79
2022/08/11 04:21:23;;;;;;;3.78;3.47;;;21.30;1.00;;;;;;5032141;28;20048;-79
2022/08/11 04:24:08;;;;;;;16.75;5.50;;;21.30;1.00;;;;;;5032138;28;20025;-79
2022/08/11 04:27:18;;;;;;;6.35;4.03;;;21.40;1.00;;;;;;5032352;28;20401;-79
2022/08/11 04:30:13;;;;;;;6.10;3.85;;;21.30;1.00;;;;;;5032347;28;20033;-79
2022/08/11 04:32:51;;;;;;;6.30;4.03;;;21.20;1.00;;;;;;5032127;28;20033;-79
2022/08/11 04:35:48;;;;;;;4.25;3.85;;;21.20;1.00;;;;;;5032215;28;20032;-79
2022/08/11 04:38:45;;;;;;;5.00;3.70;;;21.30;1.00;;;;;;5031757;28;20112;-79
2022/08/11 04:45:10;;;;;;;4.60;3.67;;;21.50;1.00;;;;;;4970787;28;20027;-79
2022/08/11 05:07:26;;;;;;;3.90;3.60;;;21.40;1.00;;;;;;4970680;28;20196;-79
2022/08/11 05:10:17;;;;;;;4.82;3.58;;;21.50;1.00;;;;;;4970824;28;20488;-79
2022/08/11 05:12:52;;;;;;;4.78;3.45;;;21.50;1.00;;;;;;4971281;28;20037;-79
2022/08/11 05:36:42;;;;;;;4.10;3.70;;;21.40;1.00;;;;;;4954650;29;20066;-79
2022/08/11 05:58:44;;;;;;;7.68;3.80;;;22.10;1.00;;;;;;4954501;29;20151;-79
2022/08/11 06:01:11;;;;;;;4.22;3.70;;;22.20;1.00;;;;;;5001539;28;20125;-79
2022/08/11 06:06:25;;;;;;;6.45;4.60;;;22.20;1.00;;;;;;5014942;28;20437;-79
2022/08/11 06:08:55;;;;;;;6.07;3.90;;;22.30;1.00;;;;;;5014689;28;20054;-79
2022/08/11 06:11:23;;;;;;;5.55;4.00;;;22.40;1.00;;;;;;5014551;28;20041;-80
2022/08/11 06:13:49;;;;;;;4.53;3.80;;;22.40;1.00;;;;;;5014527;28;20044;-79
2022/08/11 06:16:21;;;;;;;4.07;3.40;;;22.30;1.00;;;;;;5014558;28;20393;-79
2022/08/11 06:18:48;;;;;;;6.00;3.63;;;22.40;1.00;;;;;;5013725;28;20374;-79
2022/08/11 06:21:15;;;;;;;6.25;3.90;;;22.60;1.00;;;;;;5014801;28;20034;-80
2022/08/11 06:23:42;;;;;;;4.65;3.60;;;22.60;1.00;;;;;;5014268;28;20054;-80
2022/08/11 06:26:12;;;;;;;4.88;3.75;;;22.80;1.00;;;;;;5014102;28;20050;-80
2022/08/11 06:28:43;;;;;;;4.35;3.63;;;22.90;1.00;;;;;;5020177;28;20104;-80
2022/08/11 06:31:18;;;;;;;7.35;3.83;;;23.10;1.00;;;;;;5034364;28;20093;-80
2022/08/11 06:34:07;;;;;;;6.20;3.90;;;23.20;1.00;;;;;;5033087;28;20025;-80
2022/08/11 06:36:56;;;;;;;6.57;3.90;;;23.20;1.00;;;;;;4953255;29;20031;-80
2022/08/11 06:39:35;;;;;;;9.23;4.20;;;23.40;1.00;;;;;;4953514;29;20038;-80
2022/08/11 06:42:23;;;;;;;5.03;3.75;;;23.70;1.00;;;;;;4953499;29;20046;-80
2022/08/11 06:45:16;;;;;;;8.27;4.25;;;23.80;1.00;;;;;;4953373;29;20058;-80
2022/08/11 06:47:48;;;;;;;8.10;4.25;;;24.00;1.00;;;;;;4952993;29;20067;-80
2022/08/11 06:53:11;;;;;;;6.80;4.22;;;24.30;1.00;;;;;;4953430;29;20087;-79
2022/08/11 07:01:32;;;;;;;10.55;4.32;;;24.60;1.00;;;;;;4953116;29;20054;-79
2022/08/11 07:04:06;;;;;;;6.18;3.75;;;24.70;1.00;;;;;;4953138;29;20028;-79
2022/08/11 07:15:40;;;;;;;5.43;3.42;;;24.90;1.00;;;;;;4952971;29;20047;-79
2022/08/11 07:15:40;;;;;;;5.75;3.78;;;25.20;1.00;;;;;;5033224;28;20033;-79
2022/08/11 07:29:12;;;;;;;6.38;4.47;;;25.30;1.00;;;;;;5033385;28;20390;-79
2022/08/11 07:31:48;;;;;;;4.22;3.75;;;25.50;1.00;;;;;;5032383;28;20022;-79
2022/08/11 07:34:36;;;;;;;4.38;3.55;;;25.60;1.00;;;;;;5032812;28;20175;-79
2022/08/11 07:37:16;;;;;;;5.65;3.50;;;25.80;1.00;;;;;;5033035;28;20456;-79
2022/08/11 07:39:44;;;;;;;4.78;3.20;;;25.90;1.00;;;;;;5032574;28;20557;-79
2022/08/11 07:42:19;;;;;;;3.72;3.40;;;26.10;1.00;;;;;;5032869;28;20021;-79
2022/08/11 07:53:03;;;;;;;5.03;3.92;;;26.70;1.00;;;;;;5032468;28;20104;-80
2022/08/11 07:55:30;;;;;;;6.20;3.95;;;26.90;1.00;;;;;;5032468;28;20421;-79
2022/08/11 08:20:02;;;;;;;4.40;4.00;;;27.60;1.00;;;;;;5032439;28;20079;-79
2022/08/11 08:22:28;;;;;;;5.25;4.18;;;27.60;1.00;;;;;;5032386;28;20052;-79
2022/08/11 08:24:55;;;;;;;6.28;4.20;;;27.80;1.00;;;;;;5032079;28;20029;-79
2022/08/11 08:27:22;;;;;;;5.18;4.10;;;27.90;1.00;;;;;;5031941;28;20132;-79
2022/08/11 08:32:37;;;;;;;5.40;4.28;;;28.10;1.00;;;;;;5032087;28;20029;-79
2022/08/11 08:35:04;;;;;;;4.50;4.10;;;28.30;1.00;;;;;;5032057;28;20056;-79
2022/08/11 08:37:29;;;;;;;5.35;3.90;;;28.20;99.90;;;;;;5032087;28;20109;-80
2022/08/11 08:39:57;;;;;;;5.53;3.92;;;28.20;99.90;;;;;;5031836;28;20124;-79
2022/08/11 08:42:29;;;;;;;4.72;4.20;;;28.40;99.90;;;;;;5030990;28;20469;-79
2022/08/11 08:45:04;;;;;;;5.30;4.05;;;28.50;99.90;;;;;;5031656;28;20025;-80
2022/08/11 08:47:34;;;;;;;6.25;4.45;;;28.70;99.90;;;;;;5031867;28;20037;-80
2022/08/11 08:50:02;;;;;;;8.57;3.80;;;28.80;99.90;;;;;;5031960;28;20104;-79
2022/08/11 08:52:39;;;;;;;5.53;4.05;;;28.80;99.90;;;;;;5031834;28;20494;-79
2022/08/11 08:55:06;;;;;;;6.32;4.60;;;28.90;99.90;;;;;;5032021;28;20083;-79
2022/08/11 08:57:34;;;;;;;4.38;3.97;;;29.00;99.90;;;;;;5031881;28;20378;-79
2022/08/11 09:00:02;;;;;;;4.35;4.05;;;29.10;99.90;;;;;;5035550;28;20177;-79
2022/08/11 09:02:29;;;;;;;4.93;4.13;;;29.20;99.90;;;;;;5035669;28;20486;-80
2022/08/11 09:04:55;;;;;;;4.65;3.83;;;29.30;99.90;;;;;;5035665;28;20029;-79
2022/08/11 09:07:25;;;;;;;8.70;5.13;;;29.40;99.90;;;;;;5035641;28;20021;-79
2022/08/11 09:09:55;;;;;;;4.68;3.90;;;29.60;99.90;;;;;;5035541;28;20033;-80
2022/08/11 09:12:25;;;;;;;5.43;4.47;;;29.50;99.90;;;;;;5033955;28;20049;-80
2022/08/11 09:15:26;;;;;;;6.55;4.07;;;29.60;99.90;;;;;;5035675;28;20091;-79
2022/08/11 09:17:45;;;;;;;5.00;4.00;;;29.60;99.90;;;;;;5032988;28;20037;-80
2022/08/11 09:20:21;;;;;;;5.38;3.97;;;29.90;99.90;;;;;;5035300;28;20037;-80
2022/08/11 09:28:21;;;;;;;5.60;3.88;;;29.90;99.90;;;;;;5034995;28;20366;-79
2022/08/11 09:30:52;;;;;;;4.57;4.15;;;30.10;99.90;;;;;;5035141;28;20034;-80
2022/08/11 09:33:19;;;;;;;5.72;4.38;;;30.20;99.90;;;;;;5035503;28;20050;-80
2022/08/11 09:35:46;;;;;;;6.05;4.32;;;30.30;99.90;;;;;;5035075;28;20088;-80
2022/08/11 09:41:04;;;;;;;5.45;4.20;;;30.10;99.90;;;;;;5035086;28;20049;-80
2022/08/11 09:46:27;;;;;;;4.22;3.90;;;30.40;99.90;;;;;;5015347;28;20045;-81
2022/08/11 09:48:57;;;;;;;4.32;4.03;;;30.50;99.90;;;;;;5017534;28;20018;-81
2022/08/11 09:51:24;;;;;;;6.15;4.13;;;30.40;99.90;;;;;;5034500;28;20148;-81
2022/08/11 09:53:51;;;;;;;4.60;4.00;;;30.50;99.90;;;;;;5034292;28;20029;-82
2022/08/11 09:59:08;;;;;;;5.28;4.78;;;30.80;99.90;;;;;;5034789;28;20068;-81
2022/08/11 10:01:40;;;;;;;5.25;4.03;;;30.60;99.90;;;;;;5034165;28;20095;-80
2022/08/11 10:04:19;;;;;;;6.80;4.40;;;30.80;99.90;;;;;;5033656;28;20029;-80
2022/08/11 10:07:05;;;;;;;7.82;4.55;;;30.90;1.00;;;;;;5033544;28;20112;-80
2022/08/11 10:09:55;;;;;;;7.07;4.30;;;31.10;99.90;;;;;;5024629;28;20512;-80
2022/08/11 10:12:41;;;;;;;8.63;4.43;;;31.10;99.90;;;;;;5009613;28;20058;-81
2022/08/11 10:20:49;;;;;;;5.03;4.60;;;31.60;99.90;;;;;;5018988;28;20092;-82
2022/08/11 10:28:44;;;;;;;5.03;4.53;;;31.60;99.90;;;;;;5026009;28;20117;-81
2022/08/11 10:33:59;;;;;;;4.45;4.05;;;31.90;99.90;;;;;;5019144;28;20040;-80
2022/08/11 10:36:27;;;;;;;3.88;3.58;;;31.90;99.90;;;;;;5018336;28;20026;-81
2022/08/11 10:38:54;;;;;;;4.05;3.75;;;32.00;99.90;;;;;;5016703;28;20467;-81
2022/08/11 10:44:06;;;;;;;4.15;3.85;;;32.30;99.90;;;;;;5017082;28;20037;-81
2022/08/11 10:49:18;;;;;;;4.70;3.55;;;32.40;99.90;;;;;;5023499;28;20029;-81
2022/08/11 11:00:01;;;;;;;4.30;3.88;;;35.90;99.90;;;;;;5033499;28;20607;-81
2022/08/11 11:02:27;;;;;;;5.65;3.97;;;38.10;99.90;;;;;;5033497;28;20036;-81
2022/08/11 11:05:01;;;;;;;4.22;3.70;;;39.10;99.90;;;;;;5033021;28;20022;-81
2022/08/11 11:07:41;;;;;;;4.25;3.80;;;41.10;99.90;;;;;;5033372;28;20062;-81
2022/08/11 11:10:10;;;;;;;4.22;3.72;;;40.20;99.90;;;;;;5033364;28;20021;-81
2022/08/11 11:18:24;;;;;;;3.55;3.33;;;42.90;99.90;;;;;;5032414;28;20040;-85
2022/08/11 11:21:17;;;;;;;3.95;3.65;;;44.00;99.90;;;;;;5031969;28;20029;-81
2022/08/11 11:24:00;;;;;;;5.28;4.10;;;45.40;99.90;;;;;;5031837;28;20025;-80
2022/08/11 11:26:34;;;;;;;4.82;3.65;;;44.50;99.90;;;;;;5032764;28;20099;-80
2022/08/11 11:29:20;;;;;;;5.40;3.60;;;46.00;99.90;;;;;;5032902;28;20371;-80
2022/08/11 11:32:26;;;;;;;3.88;3.60;;;46.30;99.90;;;;;;5033116;28;20026;-80
2022/08/11 11:35:14;;;;;;;4.60;3.53;;;44.90;99.90;;;;;;5033063;28;20112;-80
2022/08/11 11:37:42;;;;;;;4.82;3.38;;;45.80;99.90;;;;;;5032369;28;20029;-79
2022/08/11 11:40:13;;;;;;;3.90;3.15;;;43.90;99.90;;;;;;5032675;28;20116;-80
2022/08/11 11:42:41;;;;;;;4.50;3.50;;;45.40;99.90;;;;;;5032665;28;20025;-80
2022/08/11 11:45:08;;;;;;;3.30;3.10;;;47.50;99.90;;;;;;5033084;28;20033;-80
2022/08/11 11:47:36;;;;;;;3.58;3.30;;;49.20;99.90;;;;;;5032483;28;20044;-80
2022/08/11 11:50:03;;;;;;;5.03;3.40;;;47.80;99.90;;;;;;5032561;28;20030;-80
2022/08/11 11:52:30;;;;;;;4.25;3.47;;;45.60;99.90;;;;;;5032207;28;20033;-80
2022/08/11 11:54:57;;;;;;;3.45;3.15;;;45.10;99.90;;;;;;5032346;28;20033;-80
2022/08/11 12:03:09;;;;;;;5.43;3.58;;;44.90;99.90;;;;;;5032570;28;20028;-80
2022/08/11 12:05:36;;;;;;;4.88;3.40;;;46.50;99.90;;;;;;5032283;28;20063;-80
2022/08/11 12:08:10;;;;;;;3.75;3.38;;;46.00;99.90;;;;;;5032332;28;20049;-80
2022/08/11 12:10:37;;;;;;;3.60;3.30;;;46.20;99.90;;;;;;5032468;28;20036;-80
2022/08/11 12:15:51;;;;;;;3.60;3.30;;;45.90;99.90;;;;;;5032483;28;20926;-81
2022/08/11 12:18:18;;;;;;;4.70;3.13;;;47.40;99.90;;;;;;5031219;28;20581;-80
2022/08/11 12:20:44;;;;;;;5.00;3.63;;;48.60;99.90;;;;;;5031502;28;20038;-81
2022/08/11 12:28:42;;;;;;;3.88;3.25;;;49.20;99.90;;;;;;5031873;28;20509;-80
2022/08/11 12:31:11;;;;;;;3.30;3.00;;;49.40;99.90;;;;;;5032104;28;20385;-80
2022/08/11 12:33:39;;;;;;;4.45;3.20;;;47.90;99.90;;;;;;5035745;28;20036;-80
2022/08/11 12:36:09;;;;;;;3.65;3.35;;;49.30;99.90;;;;;;5035890;28;20033;-81
2022/08/11 12:38:35;;;;;;;5.82;3.65;;;47.40;99.90;;;;;;5036239;28;20025;-80
2022/08/11 12:46:36;;;;;;;4.38;3.63;;;49.00;99.90;;;;;;5036314;28;20083;-80
2022/08/11 12:52:13;;;;;;;4.35;3.25;;;48.60;99.90;;;;;;5036266;28;20397;-81
2022/08/11 12:55:03;;;;;;;6.35;3.28;;;48.50;99.90;;;;;;5036014;28;20108;-81
2022/08/11 13:05:56;;;;;;;5.03;3.40;;;48.50;99.90;;;;;;5034713;28;20037;-80
2022/08/11 13:08:24;;;;;;;3.70;3.40;;;47.70;99.90;;;;;;5033660;28;20041;-81
2022/08/11 13:13:38;;;;;;;3.50;3.20;;;47.50;99.90;;;;;;5034677;28;20417;-81
2022/08/11 13:16:06;;;;;;;3.75;3.50;;;46.00;99.90;;;;;;5031836;28;20022;-80
2022/08/11 13:18:33;;;;;;;3.97;3.50;;;45.60;99.90;;;;;;5024474;28;20041;-81
2022/08/11 13:20:59;;;;;;;3.42;3.20;;;46.50;99.90;;;;;;5034507;28;20038;-81
2022/08/11 13:23:26;;;;;;;4.82;3.33;;;45.80;99.90;;;;;;5034040;28;20084;-81
2022/08/11 13:25:53;;;;;;;3.08;2.88;;;46.10;99.90;;;;;;5034269;28;20495;-80
2022/08/11 13:28:23;;;;;;;3.67;3.38;;;44.80;99.90;;;;;;5035073;28;20060;-81
2022/08/11 13:33:48;;;;;;;3.58;3.30;;;44.20;99.90;;;;;;5034866;28;20108;-80
2022/08/11 13:36:19;;;;;;;4.45;3.58;;;46.00;99.90;;;;;;5035020;28;20029;-81
2022/08/11 13:38:45;;;;;;;3.67;3.38;;;45.60;99.90;;;;;;5035300;28;20071;-80
2022/08/11 13:43:56;;;;;;;3.50;3.03;;;45.80;99.90;;;;;;5034192;28;20068;-80
2022/08/11 13:46:24;;;;;;;3.35;3.10;;;45.80;99.90;;;;;;5035243;28;20094;-80
2022/08/11 13:48:53;;;;;;;3.75;3.35;;;45.30;99.90;;;;;;5034483;28;20022;-80
2022/08/11 13:51:29;;;;;;;3.63;3.33;;;45.20;99.90;;;;;;5034864;28;20026;-80
2022/08/11 13:54:07;;;;;;;3.92;3.63;;;45.80;99.90;;;;;;5034778;28;20486;-80
2022/08/11 13:56:38;;;;;;;3.22;3.03;;;46.30;99.90;;;;;;5034731;28;20139;-80
2022/08/11 13:59:06;;;;;;;4.22;3.00;;;46.30;99.90;;;;;;5034652;28;20030;-81
2022/08/11 14:01:36;;;;;;;3.35;3.10;;;46.40;99.90;;;;;;5034412;28;20034;-80
2022/08/11 14:04:10;;;;;;;3.33;3.13;;;44.20;99.90;;;;;;5034561;28;20033;-80
2022/08/11 14:06:39;;;;;;;3.50;3.20;;;44.70;99.90;;;;;;5034612;28;20022;-80
2022/08/11 14:09:08;;;;;;;4.43;3.38;;;45.40;99.90;;;;;;5034485;28;20134;-81
2022/08/11 14:14:25;;;;;;;3.67;3.38;;;45.20;99.90;;;;;;5034734;28;20032;-80
2022/08/11 14:16:55;;;;;;;4.68;3.33;;;45.00;99.90;;;;;;5032395;28;20503;-80
2022/08/11 14:19:24;;;;;;;5.15;3.03;;;45.20;99.90;;;;;;5024927;28;20505;-80
2022/08/11 14:22:06;;;;;;;3.55;3.25;;;45.20;99.90;;;;;;5021719;28;20025;-80
2022/08/11 14:24:42;;;;;;;3.80;3.40;;;45.00;99.90;;;;;;5034059;28;20501;-80
2022/08/11 14:27:10;;;;;;;3.10;2.90;;;44.10;99.90;;;;;;5032583;28;20060;-80
2022/08/11 14:29:39;;;;;;;3.60;3.30;;;44.20;99.90;;;;;;5033911;28;20022;-80
2022/08/11 14:32:08;;;;;;;3.67;3.38;;;44.50;99.90;;;;;;5032818;28;20638;-80
2022/08/11 14:34:37;;;;;;;3.40;3.10;;;44.00;99.90;;;;;;5034395;28;20091;-80
2022/08/11 14:37:07;;;;;;;5.15;3.63;;;44.70;99.90;;;;;;5032787;28;20040;-80
2022/08/11 14:39:42;;;;;;;3.20;2.90;;;44.50;99.90;;;;;;5033783;28;20405;-80
2022/08/11 14:47:46;;;;;;;4.35;3.20;;;43.20;99.90;;;;;;5033254;28;20193;-81
2022/08/11 14:50:14;;;;;;;4.20;3.40;;;43.60;99.90;;;;;;5032425;28;20474;-81
2022/08/11 14:52:47;;;;;;;4.15;3.47;;;44.40;99.90;;;;;;5013880;28;20030;-80
2022/08/11 14:58:01;;;;;;;3.25;3.03;;;44.20;99.90;;;;;;5032504;28;20076;-81
2022/08/11 15:00:27;;;;;;;3.67;3.35;;;44.40;99.90;;;;;;5028745;28;20507;-80
2022/08/11 15:03:09;;;;;;;3.53;3.22;;;43.70;99.90;;;;;;5032373;28;20025;-80
2022/08/11 15:05:46;;;;;;;3.55;3.25;;;44.10;99.90;;;;;;5032344;28;20034;-80
2022/08/11 15:08:14;;;;;;;5.00;3.63;;;43.70;99.90;;;;;;5033146;28;20033;-80
2022/08/11 15:10:40;;;;;;;3.70;3.40;;;44.00;99.90;;;;;;5033343;28;20026;-80
2022/08/11 15:13:05;;;;;;;3.67;3.38;;;44.00;99.90;;;;;;5033254;28;20037;-81
2022/08/11 15:18:19;;;;;;;3.70;3.40;;;43.50;99.90;;;;;;5023524;28;20052;-80
2022/08/11 15:37:54;;;;;;;3.90;3.50;;;42.70;99.90;;;;;;5033079;28;20040;-80
2022/08/11 15:46:39;;;;;;;3.55;3.25;;;42.00;99.90;;;;;;5032599;28;20547;-80
2022/08/11 15:49:21;;;;;;;3.80;3.50;;;41.70;99.90;;;;;;4952204;29;20087;-80
2022/08/11 15:52:06;;;;;;;3.47;3.28;;;41.90;99.90;;;;;;4952417;29;20027;-80
2022/08/11 15:54:34;;;;;;;4.88;3.10;;;41.80;99.90;;;;;;4952290;29;20402;-80
2022/08/11 15:57:04;;;;;;;3.20;3.00;;;41.40;99.90;;;;;;4952248;29;20399;-80
2022/08/11 16:04:54;;;;;;;4.25;3.30;;;41.40;99.90;;;;;;4952142;29;20553;-80
2022/08/11 16:07:26;;;;;;;5.40;3.47;;;41.30;99.90;;;;;;4952323;28;20043;-80
2022/08/11 16:10:08;;;;;;;3.63;3.33;;;41.60;99.90;;;;;;4952148;29;20028;-80
2022/08/11 16:16:13;;;;;;;3.90;3.50;;;41.10;99.90;;;;;;4876338;29;20037;-80
2022/08/11 16:18:52;;;;;;;3.72;3.42;;;41.30;99.90;;;;;;4876195;29;20395;-80
2022/08/11 16:21:24;;;;;;;3.30;3.08;;;41.80;99.90;;;;;;4876333;29;20060;-80
2022/08/11 16:23:53;;;;;;;3.40;3.10;;;41.60;99.90;;;;;;4876273;29;20048;-80
2022/08/11 16:26:24;;;;;;;3.47;3.17;;;41.30;99.90;;;;;;4903441;29;20050;-80
2022/08/11 16:28:56;;;;;;;3.47;3.17;;;40.80;99.90;;;;;;4920735;29;20039;-80
2022/08/11 16:31:24;;;;;;;3.15;2.90;;;40.80;99.90;;;;;;4932891;29;20035;-80
2022/08/11 16:33:52;;;;;;;3.55;3.33;;;41.20;99.90;;;;;;4932493;29;20047;-81
2022/08/11 16:39:07;;;;;;;4.53;3.53;;;40.80;99.90;;;;;;4932848;29;20090;-80
2022/08/11 16:47:09;;;;;;;3.35;3.15;;;40.60;99.90;;;;;;4932741;29;20135;-80
2022/08/11 16:49:45;;;;;;;3.55;3.25;;;40.30;99.90;;;;;;4932613;29;20074;-80
2022/08/11 16:52:11;;;;;;;6.07;3.30;;;39.90;99.90;;;;;;4969867;28;20103;-80
2022/08/11 16:54:38;;;;;;;3.60;3.40;;;40.00;99.90;;;;;;5031989;28;20037;-80
2022/08/11 17:00:21;;;;;;;4.15;3.55;;;39.50;99.90;;;;;;5009660;28;20046;-79
2022/08/11 17:14:15;;;;;;;4.65;3.25;;;39.30;99.90;;;;;;5010210;28;20462;-80
2022/08/11 17:16:44;;;;;;;4.78;3.70;;;38.90;99.90;;;;;;5009817;28;20034;-80
2022/08/11 17:19:19;;;;;;;3.53;3.22;;;38.70;99.90;;;;;;5010737;28;20072;-80
2022/08/11 17:24:35;;;;;;;3.55;3.10;;;38.50;99.90;;;;;;5013297;28;20044;-80
2022/08/11 17:27:04;;;;;;;3.78;3.47;;;38.50;99.90;;;;;;5012759;28;20132;-80
2022/08/11 17:29:38;;;;;;;4.30;3.70;;;38.50;99.90;;;;;;5013551;28;20038;-80
2022/08/11 17:37:43;;;;;;;3.92;3.58;;;37.90;99.90;;;;;;5032876;28;20051;-80
2022/08/11 17:40:11;;;;;;;3.83;3.40;;;37.80;99.90;;;;;;5034532;28;20025;-79
2022/08/11 17:48:27;;;;;;;3.90;3.60;;;37.70;99.90;;;;;;5035528;28;20036;-79
2022/08/11 17:51:02;;;;;;;6.60;3.88;;;37.40;99.90;;;;;;5034754;28;20030;-80
2022/08/11 18:01:53;;;;;;;5.10;3.83;;;36.90;99.90;;;;;;5034855;28;20047;-80
2022/08/11 18:04:21;;;;;;;6.30;3.97;;;36.70;99.90;;;;;;5034593;28;20017;-80
2022/08/11 18:06:48;;;;;;;3.92;3.63;;;36.60;99.90;;;;;;5034555;28;20482;-80
